createdAt,value
2019-05-18T00:00:41.569Z,13.50
2019-05-18T00:03:10.258Z,13.50
2019-05-18T00:05:39.527Z,13.40
2019-05-18T00:08:08.455Z,13.40
2019-05-18T00:10:37.506Z,13.40
2019-05-18T00:13:06.392Z,13.30
2019-05-18T00:15:35.146Z,13.30
2019-05-18T00:18:04.169Z,13.30
2019-05-18T00:20:32.909Z,13.30
2019-05-18T00:23:01.573Z,13.20
2019-05-18T00:25:30.258Z,13.20
2019-05-18T00:27:59.119Z,13.20
2019-05-18T00:30:28.072Z,13.10
2019-05-18T00:32:57.002Z,13.10
2019-05-18T00:35:26.287Z,13.00
2019-05-18T00:37:54.972Z,13.00
2019-05-18T00:40:23.639Z,13.00
2019-05-18T00:42:52.487Z,12.90
2019-05-18T00:45:21.223Z,12.90
2019-05-18T00:47:50.266Z,12.90
2019-05-18T00:50:19.174Z,12.90
2019-05-18T00:52:48.334Z,12.80
2019-05-18T00:55:17.229Z,12.80
2019-05-18T00:57:46.239Z,12.70
2019-05-18T01:00:16.708Z,12.70
2019-05-18T01:02:45.423Z,12.70
2019-05-18T01:05:14.272Z,12.60
2019-05-18T01:07:45.836Z,12.60
2019-05-18T01:10:14.590Z,12.60
2019-05-18T01:12:43.356Z,12.60
2019-05-18T01:15:12.966Z,12.60
2019-05-18T01:17:56.171Z,12.50
2019-05-18T01:20:12.668Z,12.50
2019-05-18T01:22:41.467Z,12.40
2019-05-18T01:25:10.482Z,12.40
2019-05-18T01:27:39.742Z,12.40
2019-05-18T01:30:09.407Z,12.40
2019-05-18T01:32:38.111Z,12.40
2019-05-18T01:35:07.742Z,12.40
2019-05-18T01:37:36.474Z,12.40
2019-05-18T01:40:05.403Z,12.40
2019-05-18T01:42:34.475Z,12.30
2019-05-18T01:45:15.719Z,12.30
2019-05-18T01:47:34.173Z,12.30
2019-05-18T01:50:03.068Z,12.20
2019-05-18T01:52:32.025Z,12.20
2019-05-18T01:55:00.808Z,12.20
2019-05-18T01:57:30.148Z,12.20
2019-05-18T01:59:58.911Z,12.20
2019-05-18T02:02:27.562Z,12.10
2019-05-18T02:04:56.585Z,12.10
2019-05-18T02:07:25.286Z,12.10
2019-05-18T02:09:54.467Z,12.10
2019-05-18T02:12:23.213Z,12.00
2019-05-18T02:14:51.957Z,12.00
2019-05-18T02:17:21.545Z,12.00
2019-05-18T02:19:50.319Z,12.00
2019-05-18T02:22:19.025Z,11.90
2019-05-18T02:24:47.782Z,11.90
2019-05-18T02:27:16.570Z,11.90
2019-05-18T02:29:45.881Z,11.90
2019-05-18T02:32:14.662Z,11.80
2019-05-18T02:34:43.704Z,11.80
2019-05-18T02:37:12.470Z,11.80
2019-05-18T02:39:41.295Z,11.70
2019-05-18T02:42:10.162Z,11.70
2019-05-18T02:44:39.043Z,11.70
2019-05-18T02:47:07.877Z,11.70
2019-05-18T02:49:37.564Z,11.70
2019-05-18T02:52:06.630Z,11.70
2019-05-18T02:54:35.988Z,11.70
2019-05-18T02:57:04.895Z,11.70
2019-05-18T02:59:33.615Z,11.60
2019-05-18T03:02:02.290Z,11.60
2019-05-18T03:04:31.401Z,11.60
2019-05-18T03:07:00.314Z,11.60
2019-05-18T03:09:29.164Z,11.50
2019-05-18T03:11:59.145Z,11.50
2019-05-18T03:14:27.909Z,11.50
2019-05-18T03:16:56.622Z,11.50
2019-05-18T03:19:25.463Z,11.50
2019-05-18T03:21:54.465Z,11.50
2019-05-18T03:24:23.432Z,11.50
2019-05-18T03:26:52.271Z,11.50
2019-05-18T03:29:21.409Z,11.60
2019-05-18T03:31:50.099Z,11.60
2019-05-18T03:34:20.010Z,11.70
2019-05-18T03:36:48.810Z,11.80
2019-05-18T03:39:17.484Z,11.90
2019-05-18T03:41:46.718Z,12.10
2019-05-18T03:44:15.606Z,12.30
2019-05-18T03:46:44.703Z,12.40
2019-05-18T03:49:26.338Z,12.60
2019-05-18T03:51:44.368Z,12.80
2019-05-18T03:54:13.655Z,13.10
2019-05-18T03:56:42.452Z,13.30
2019-05-18T03:59:11.399Z,13.50
2019-05-18T04:01:40.184Z,13.80
2019-05-18T04:04:08.983Z,14.00
2019-05-18T04:06:37.651Z,14.20
2019-05-18T04:09:06.711Z,14.10
2019-05-18T04:11:35.507Z,14.10
2019-05-18T04:14:08.451Z,14.40
2019-05-18T04:16:36.509Z,14.70
2019-05-18T04:19:05.277Z,15.20
2019-05-18T04:21:34.038Z,15.40
2019-05-18T04:24:02.986Z,15.30
2019-05-18T04:26:31.720Z,15.30
2019-05-18T04:29:00.776Z,15.50
2019-05-18T04:31:32.436Z,15.50
2019-05-18T04:34:00.372Z,15.60
2019-05-18T04:36:29.104Z,15.80
2019-05-18T04:38:57.853Z,15.80
2019-05-18T04:41:26.745Z,15.80
2019-05-18T04:43:55.923Z,16.10
2019-05-18T04:46:25.386Z,15.70
2019-05-18T04:48:54.302Z,15.40
2019-05-18T04:51:23.198Z,14.90
2019-05-18T04:53:52.156Z,15.00
2019-05-18T04:56:21.397Z,15.90
2019-05-18T04:58:50.086Z,16.70
2019-05-18T05:01:18.999Z,18.00
2019-05-18T05:03:48.867Z,19.10
2019-05-18T05:06:17.802Z,19.50
2019-05-18T05:08:46.727Z,19.70
2019-05-18T05:11:15.727Z,20.50
2019-05-18T05:13:44.499Z,20.90
2019-05-18T05:16:14.174Z,21.20
2019-05-18T05:18:42.958Z,21.20
2019-05-18T05:21:11.719Z,21.30
2019-05-18T05:23:40.422Z,21.50
2019-05-18T05:26:09.306Z,22.40
2019-05-18T05:28:38.315Z,22.70
2019-05-18T05:31:06.991Z,23.30
2019-05-18T05:33:35.966Z,22.70
2019-05-18T05:36:04.747Z,22.10
2019-05-18T05:38:33.439Z,22.40
2019-05-18T05:41:02.295Z,22.30
2019-05-18T05:43:31.073Z,21.50
2019-05-18T05:46:00.010Z,22.60
2019-05-18T05:48:28.878Z,23.70
2019-05-18T05:50:57.627Z,23.00
2019-05-18T05:53:26.618Z,22.60
2019-05-18T05:55:55.735Z,23.70
2019-05-18T05:58:24.457Z,24.40
2019-05-18T06:00:53.464Z,23.40
2019-05-18T06:03:22.306Z,23.30
2019-05-18T06:05:51.010Z,23.90
2019-05-18T06:08:19.751Z,23.80
2019-05-18T06:10:48.494Z,22.40
2019-05-18T06:13:17.435Z,23.00
2019-05-18T06:15:46.213Z,24.40
2019-05-18T06:18:15.983Z,25.40
2019-05-18T06:20:51.470Z,25.30
2019-05-18T06:23:15.477Z,25.00
2019-05-18T06:25:44.284Z,25.40
2019-05-18T06:28:13.411Z,26.20
2019-05-18T06:30:42.408Z,26.40
2019-05-18T06:33:11.179Z,26.50
2019-05-18T06:35:40.028Z,26.50
2019-05-18T06:38:08.903Z,26.20
2019-05-18T06:40:37.840Z,26.10
2019-05-18T06:43:06.842Z,26.00
2019-05-18T06:45:36.530Z,26.50
2019-05-18T06:48:05.838Z,27.70
2019-05-18T06:50:34.813Z,27.30
2019-05-18T06:53:04.239Z,27.50
2019-05-18T06:55:33.528Z,27.80
2019-05-18T06:58:03.312Z,28.30
2019-05-18T07:00:32.011Z,27.80
2019-05-18T07:03:00.891Z,27.50
2019-05-18T07:05:29.810Z,27.70
2019-05-18T07:07:58.512Z,27.80
2019-05-18T07:10:27.499Z,27.20
2019-05-18T07:12:56.287Z,26.20
2019-05-18T07:15:25.305Z,26.10
2019-05-18T07:17:54.528Z,27.40
2019-05-18T07:20:23.987Z,27.60
2019-05-18T07:22:52.854Z,27.40
2019-05-18T07:25:21.645Z,27.30
2019-05-18T07:27:50.454Z,26.50
2019-05-18T07:30:19.485Z,27.20
2019-05-18T07:32:48.316Z,28.80
2019-05-18T07:35:17.622Z,29.10
2019-05-18T07:37:46.650Z,29.80
2019-05-18T07:40:15.448Z,30.30
2019-05-18T07:42:44.723Z,29.60
2019-05-18T07:45:14.104Z,29.50
2019-05-18T07:47:42.996Z,29.60
2019-05-18T07:50:13.035Z,29.20
2019-05-18T07:52:42.066Z,28.10
2019-05-18T07:55:11.216Z,28.60
2019-05-18T07:57:39.927Z,29.30
2019-05-18T08:00:09.099Z,27.60
2019-05-18T08:02:37.819Z,26.80
2019-05-18T08:05:06.840Z,25.60
2019-05-18T08:07:35.660Z,26.30
2019-05-18T08:10:05.191Z,27.50
2019-05-18T08:12:33.955Z,27.50
2019-05-18T08:15:02.800Z,26.80
2019-05-18T08:17:31.963Z,27.50
2019-05-18T08:20:01.076Z,27.50
2019-05-18T08:22:31.234Z,26.50
2019-05-18T08:25:00.433Z,25.90
2019-05-18T08:27:29.246Z,25.50
2019-05-18T08:29:57.991Z,24.50
2019-05-18T08:32:27.225Z,24.40
2019-05-18T08:34:56.375Z,23.80
2019-05-18T08:37:25.345Z,23.40
2019-05-18T08:39:54.414Z,23.70
2019-05-18T08:42:23.383Z,24.50
2019-05-18T08:44:52.398Z,24.20
2019-05-18T08:47:21.161Z,24.70
2019-05-18T08:49:50.569Z,25.60
2019-05-18T08:52:19.548Z,25.50
2019-05-18T08:54:48.591Z,24.70
2019-05-18T08:57:17.709Z,24.50
2019-05-18T08:59:46.511Z,25.40
2019-05-18T09:02:15.359Z,25.20
2019-05-18T09:04:44.187Z,25.10
2019-05-18T09:07:12.950Z,24.80
2019-05-18T09:09:42.948Z,23.80
2019-05-18T09:12:12.254Z,24.10
2019-05-18T09:14:41.136Z,24.60
2019-05-18T09:17:10.184Z,25.20
2019-05-18T09:19:38.988Z,24.70
2019-05-18T09:22:21.245Z,24.40
2019-05-18T09:24:40.919Z,25.00
2019-05-18T09:27:10.103Z,25.50
2019-05-18T09:29:38.799Z,25.60
2019-05-18T09:32:07.742Z,25.50
2019-05-18T09:34:36.455Z,25.50
2019-05-18T09:37:13.151Z,25.20
2019-05-18T09:39:49.727Z,24.80
2019-05-18T09:42:22.900Z,24.70
2019-05-18T09:44:51.932Z,25.20
2019-05-18T09:47:32.046Z,26.10
2019-05-18T09:50:06.534Z,26.50
2019-05-18T09:52:44.678Z,25.00
2019-05-18T09:55:06.475Z,24.70
2019-05-18T09:57:35.513Z,24.80
2019-05-18T10:00:05.109Z,24.40
2019-05-18T10:02:34.167Z,24.40
2019-05-18T10:05:04.472Z,23.80
2019-05-18T10:07:33.363Z,23.00
2019-05-18T10:10:02.265Z,22.80
2019-05-18T10:12:31.184Z,22.80
2019-05-18T10:15:00.000Z,22.70
2019-05-18T10:17:28.971Z,22.70
2019-05-18T10:19:57.911Z,22.90
2019-05-18T10:22:26.596Z,22.80
2019-05-18T10:24:55.763Z,22.90
2019-05-18T10:27:25.517Z,22.90
2019-05-18T10:29:54.241Z,22.90
2019-05-18T10:32:23.429Z,22.90
2019-05-18T10:34:52.133Z,23.00
2019-05-18T10:37:20.899Z,23.00
2019-05-18T10:39:49.681Z,23.00
2019-05-18T10:42:18.872Z,23.10
2019-05-18T10:44:47.562Z,23.20
2019-05-18T10:47:17.289Z,23.40
2019-05-18T10:49:46.345Z,23.30
2019-05-18T10:52:15.471Z,23.50
2019-05-18T10:54:44.748Z,23.60
2019-05-18T10:57:13.638Z,23.70
2019-05-18T10:59:42.335Z,23.40
2019-05-18T11:02:11.127Z,23.20
2019-05-18T11:04:39.811Z,23.20
2019-05-18T11:07:08.804Z,23.30
2019-05-18T11:09:37.838Z,23.30
2019-05-18T11:12:06.540Z,23.30
2019-05-18T11:14:35.519Z,23.50
2019-05-18T11:17:04.420Z,23.50
2019-05-18T11:19:33.239Z,23.60
2019-05-18T11:22:03.171Z,23.50
2019-05-18T11:24:32.291Z,23.20
2019-05-18T11:27:00.986Z,23.30
2019-05-18T11:29:32.260Z,23.50
2019-05-18T11:32:01.104Z,23.60
2019-05-18T11:34:29.799Z,23.80
2019-05-18T11:36:58.581Z,24.00
2019-05-18T11:39:27.591Z,23.80
2019-05-18T11:41:56.295Z,23.80
2019-05-18T11:44:25.142Z,23.90
2019-05-18T11:46:54.313Z,23.60
2019-05-18T11:49:23.265Z,23.70
2019-05-18T11:51:52.376Z,24.00
2019-05-18T11:54:21.165Z,24.20
2019-05-18T11:56:49.876Z,24.20
2019-05-18T11:59:18.644Z,24.30
2019-05-18T12:01:47.464Z,24.20
2019-05-18T12:04:16.161Z,23.90
2019-05-18T12:06:44.990Z,23.90
2019-05-18T12:09:13.746Z,23.90
2019-05-18T12:11:42.539Z,23.90
2019-05-18T12:14:11.318Z,23.90
2019-05-18T12:16:40.364Z,23.80
2019-05-18T12:19:09.293Z,23.70
2019-05-18T12:21:38.209Z,23.80
2019-05-18T12:24:15.246Z,23.80
2019-05-18T12:26:37.564Z,24.00
2019-05-18T12:29:06.569Z,23.80
2019-05-18T12:31:36.217Z,23.80
2019-05-18T12:34:04.995Z,23.70
2019-05-18T12:36:33.771Z,23.70
2019-05-18T12:39:02.804Z,23.70
2019-05-18T12:41:31.615Z,23.90
2019-05-18T12:44:00.643Z,23.90
2019-05-18T12:46:29.784Z,23.60
2019-05-18T12:48:58.701Z,23.60
2019-05-18T12:51:27.470Z,23.90
2019-05-18T12:53:56.313Z,24.30
2019-05-18T12:56:25.186Z,24.50
2019-05-18T12:58:54.100Z,24.70
2019-05-18T13:01:24.406Z,24.90
2019-05-18T13:03:53.187Z,24.70
2019-05-18T13:06:21.986Z,24.60
2019-05-18T13:08:50.751Z,24.70
2019-05-18T13:11:19.800Z,24.60
2019-05-18T13:13:48.543Z,24.40
2019-05-18T13:16:17.906Z,24.50
2019-05-18T13:18:46.885Z,24.40
2019-05-18T13:21:15.850Z,24.50
2019-05-18T13:23:44.575Z,24.40
2019-05-18T13:26:13.305Z,24.30
2019-05-18T13:28:42.107Z,24.40
2019-05-18T13:31:10.970Z,24.40
2019-05-18T13:33:40.340Z,24.60
2019-05-18T13:36:09.111Z,24.70
2019-05-18T13:38:38.190Z,24.70
2019-05-18T13:41:07.131Z,24.90
2019-05-18T13:43:36.319Z,24.90
2019-05-18T13:46:05.409Z,24.90
2019-05-18T13:48:34.118Z,24.80
2019-05-18T13:51:02.847Z,24.50
2019-05-18T13:53:31.702Z,24.20
2019-05-18T13:56:00.733Z,24.30
2019-05-18T13:58:29.450Z,24.30
2019-05-18T14:00:58.442Z,24.40
2019-05-18T14:03:27.278Z,24.50
2019-05-18T14:05:55.966Z,24.50
2019-05-18T14:08:24.908Z,24.50
2019-05-18T14:10:53.692Z,24.60
2019-05-18T14:13:22.785Z,24.50
2019-05-18T14:15:51.752Z,24.30
2019-05-18T14:18:20.717Z,24.10
2019-05-18T14:20:49.639Z,24.20
2019-05-18T14:23:19.027Z,24.30
2019-05-18T14:25:47.881Z,24.40
2019-05-18T14:28:16.607Z,24.40
2019-05-18T14:30:45.512Z,24.20
2019-05-18T14:33:14.287Z,24.10
2019-05-18T14:35:43.361Z,24.20
2019-05-18T14:38:12.203Z,24.20
2019-05-18T14:40:40.981Z,24.30
2019-05-18T14:43:09.969Z,24.40
2019-05-18T14:45:38.822Z,24.40
2019-05-18T14:48:07.931Z,24.30
2019-05-18T14:50:36.727Z,24.30
2019-05-18T14:53:05.672Z,24.30
2019-05-18T14:55:34.439Z,24.40
2019-05-18T14:58:03.406Z,24.40
2019-05-18T15:00:32.421Z,24.30
2019-05-18T15:03:01.250Z,24.30
2019-05-18T15:05:30.318Z,24.20
2019-05-18T15:07:59.115Z,24.20
2019-05-18T15:10:27.835Z,24.20
2019-05-18T15:12:56.621Z,24.20
2019-05-18T15:15:25.937Z,24.20
2019-05-18T15:17:54.612Z,24.20
2019-05-18T15:20:23.515Z,24.10
2019-05-18T15:22:52.510Z,24.10
2019-05-18T15:25:21.222Z,24.10
2019-05-18T15:27:50.126Z,24.10
2019-05-18T15:30:22.562Z,24.10
2019-05-18T15:32:51.747Z,24.20
2019-05-18T15:35:20.644Z,24.00
2019-05-18T15:37:49.789Z,23.90
2019-05-18T15:40:18.765Z,23.90
2019-05-18T15:42:47.611Z,24.00
2019-05-18T15:45:17.743Z,24.10
2019-05-18T15:47:46.697Z,24.10
2019-05-18T15:50:16.799Z,23.90
2019-05-18T15:52:45.770Z,23.90
2019-05-18T15:55:14.868Z,24.00
2019-05-18T15:57:43.621Z,24.10
2019-05-18T16:00:13.591Z,24.10
2019-05-18T16:02:42.836Z,24.00
2019-05-18T16:05:13.609Z,23.80
2019-05-18T16:07:42.779Z,23.80
2019-05-18T16:10:11.884Z,23.80
2019-05-18T16:12:40.631Z,23.80
2019-05-18T16:15:10.127Z,23.80
2019-05-18T16:17:40.245Z,23.90
2019-05-18T16:20:09.787Z,23.90
2019-05-18T16:22:38.603Z,23.90
2019-05-18T16:25:07.729Z,23.90
2019-05-18T16:27:36.531Z,23.80
2019-05-18T16:30:05.898Z,23.80
2019-05-18T16:32:34.836Z,23.80
2019-05-18T16:35:03.725Z,23.80
2019-05-18T16:37:32.531Z,23.80
2019-05-18T16:40:01.432Z,23.80
2019-05-18T16:42:30.474Z,23.70
2019-05-18T16:44:59.269Z,23.70
2019-05-18T16:47:28.326Z,23.60
2019-05-18T16:49:58.861Z,23.60
2019-05-18T16:52:27.631Z,23.60
2019-05-18T16:54:56.330Z,23.60
2019-05-18T16:57:25.296Z,23.60
2019-05-18T16:59:54.167Z,23.50
2019-05-18T17:02:31.205Z,23.50
2019-05-18T17:04:53.789Z,23.50
2019-05-18T17:07:22.686Z,23.60
2019-05-18T17:09:51.578Z,23.50
2019-05-18T17:12:20.798Z,23.50
2019-05-18T17:14:49.820Z,23.50
2019-05-18T17:17:18.510Z,23.40
2019-05-18T17:19:47.308Z,23.40
2019-05-18T17:22:16.355Z,23.30
2019-05-18T17:24:45.176Z,23.30
2019-05-18T17:27:14.144Z,23.30
2019-05-18T17:29:43.344Z,23.30
2019-05-18T17:32:13.115Z,23.30
2019-05-18T17:34:41.889Z,23.20
2019-05-18T17:37:10.864Z,23.20
2019-05-18T17:39:39.956Z,23.10
2019-05-18T17:42:09.070Z,23.10
2019-05-18T17:44:37.979Z,23.10
2019-05-18T17:47:07.011Z,23.10
2019-05-18T17:49:35.785Z,23.00
2019-05-18T17:52:06.251Z,23.00
2019-05-18T17:54:35.228Z,22.90
2019-05-18T17:57:08.493Z,22.90
2019-05-18T17:59:34.687Z,22.90
2019-05-18T18:02:03.405Z,22.80
2019-05-18T18:04:32.097Z,22.80
2019-05-18T18:07:00.946Z,22.60
2019-05-18T18:09:29.638Z,22.50
2019-05-18T18:11:58.306Z,22.50
2019-05-18T18:14:27.515Z,22.50
2019-05-18T18:16:56.282Z,22.30
2019-05-18T18:19:25.252Z,22.30
2019-05-18T18:21:54.039Z,22.20
2019-05-18T18:24:22.707Z,22.10
2019-05-18T18:26:51.462Z,22.10
2019-05-18T18:29:20.177Z,22.10
2019-05-18T18:31:48.964Z,21.90
2019-05-18T18:34:17.684Z,21.90
2019-05-18T18:36:46.474Z,21.80
2019-05-18T18:39:15.469Z,21.70
2019-05-18T18:41:44.189Z,21.60
2019-05-18T18:44:13.247Z,21.50
2019-05-18T18:46:41.998Z,21.50
2019-05-18T18:49:10.867Z,21.40
2019-05-18T18:51:39.863Z,21.30
2019-05-18T18:54:08.657Z,21.20
2019-05-18T18:56:37.802Z,21.10
2019-05-18T18:59:07.310Z,21.00
2019-05-18T19:01:36.007Z,20.80
2019-05-18T19:04:04.780Z,20.70
2019-05-18T19:06:33.671Z,20.60
2019-05-18T19:09:03.017Z,20.40
2019-05-18T19:11:32.053Z,20.30
2019-05-18T19:14:00.894Z,20.20
2019-05-18T19:16:29.619Z,20.00
2019-05-18T19:18:58.410Z,19.90
2019-05-18T19:21:27.600Z,19.80
2019-05-18T19:23:56.366Z,19.70
2019-05-18T19:26:25.181Z,19.70
2019-05-18T19:28:54.341Z,19.60
2019-05-18T19:31:23.250Z,19.50
2019-05-18T19:33:51.981Z,19.40
2019-05-18T19:36:20.909Z,19.40
2019-05-18T19:38:49.806Z,19.30
2019-05-18T19:41:18.725Z,19.20
2019-05-18T19:43:47.862Z,19.20
2019-05-18T19:46:16.807Z,19.10
2019-05-18T19:48:45.505Z,19.00
2019-05-18T19:51:16.068Z,19.00
2019-05-18T19:53:44.952Z,18.90
2019-05-18T19:56:13.707Z,18.90
2019-05-18T19:58:42.705Z,18.80
2019-05-18T20:01:11.668Z,18.80
2019-05-18T20:03:40.484Z,18.80
2019-05-18T20:06:09.588Z,18.80
2019-05-18T20:08:38.328Z,18.80
2019-05-18T20:11:07.580Z,18.80
2019-05-18T20:13:36.354Z,18.80
2019-05-18T20:16:05.135Z,18.70
2019-05-18T20:18:33.825Z,18.70
2019-05-18T20:21:02.777Z,18.60
2019-05-18T20:23:31.463Z,18.60
2019-05-18T20:26:00.399Z,18.50
2019-05-18T20:28:29.461Z,18.40
2019-05-18T20:30:58.139Z,18.40
2019-05-18T20:33:26.806Z,18.40
2019-05-18T20:35:55.767Z,18.30
2019-05-18T20:38:24.579Z,18.20
2019-05-18T20:40:53.572Z,18.20
2019-05-18T20:43:22.329Z,18.10
2019-05-18T20:45:51.035Z,18.00
2019-05-18T20:48:20.164Z,18.00
2019-05-18T20:50:48.954Z,17.90
2019-05-18T20:53:17.704Z,17.80
2019-05-18T20:55:46.679Z,17.80
2019-05-18T20:58:15.460Z,17.70
2019-05-18T21:00:44.201Z,17.70
2019-05-18T21:03:12.946Z,17.60
2019-05-18T21:05:41.734Z,17.60
2019-05-18T21:08:11.012Z,17.60
2019-05-18T21:10:39.723Z,17.60
2019-05-18T21:13:08.458Z,17.60
2019-05-18T21:15:37.143Z,17.60
2019-05-18T21:18:05.918Z,17.50
2019-05-18T21:20:34.903Z,17.50
2019-05-18T21:23:03.659Z,17.40
2019-05-18T21:25:32.950Z,17.50
2019-05-18T21:28:02.042Z,17.40
2019-05-18T21:30:30.822Z,17.40
2019-05-18T21:32:59.731Z,17.30
2019-05-18T21:35:28.538Z,17.20
2019-05-18T21:37:57.444Z,17.10
2019-05-18T21:40:26.827Z,17.10
2019-05-18T21:42:55.540Z,17.00
2019-05-18T21:45:24.203Z,17.00
2019-05-18T21:47:52.967Z,16.90
2019-05-18T21:50:21.914Z,16.80
2019-05-18T21:52:51.193Z,16.80
2019-05-18T21:55:19.943Z,16.80
2019-05-18T21:57:48.931Z,16.80
2019-05-18T22:00:19.213Z,16.80
2019-05-18T22:02:49.612Z,16.70
2019-05-18T22:05:19.223Z,16.70
2019-05-18T22:07:48.094Z,16.60
2019-05-18T22:10:25.550Z,16.60
2019-05-18T22:12:48.066Z,16.60
2019-05-18T22:15:17.078Z,16.50
2019-05-18T22:18:04.017Z,16.50
2019-05-18T22:20:34.021Z,16.40
2019-05-18T22:23:03.140Z,16.40
2019-05-18T22:25:32.239Z,16.30
2019-05-18T22:28:00.919Z,16.30
2019-05-18T22:30:29.670Z,16.20
2019-05-18T22:32:58.561Z,16.20
2019-05-18T22:35:27.278Z,16.10
2019-05-18T22:37:56.875Z,16.10
2019-05-18T22:40:25.660Z,16.00
2019-05-18T22:42:54.403Z,16.00
2019-05-18T22:45:23.107Z,16.00
2019-05-18T22:47:52.076Z,16.10
2019-05-18T22:50:21.381Z,16.20
2019-05-18T22:52:50.596Z,16.30
2019-05-18T22:55:19.461Z,16.30
2019-05-18T22:57:48.242Z,16.40
2019-05-18T23:00:17.445Z,16.30
2019-05-18T23:02:46.641Z,16.30
2019-05-18T23:05:15.458Z,16.30
2019-05-18T23:07:44.539Z,16.20
2019-05-18T23:10:13.451Z,16.10
2019-05-18T23:12:42.333Z,16.20
2019-05-18T23:15:11.969Z,16.10
2019-05-18T23:17:41.508Z,16.10
2019-05-18T23:20:11.537Z,16.10
2019-05-18T23:22:40.255Z,16.00
2019-05-18T23:25:09.501Z,16.00
2019-05-18T23:27:38.245Z,15.90
2019-05-18T23:30:07.594Z,15.80
2019-05-18T23:32:36.846Z,15.80
2019-05-18T23:35:06.218Z,15.70
2019-05-18T23:37:35.203Z,15.60
2019-05-18T23:40:04.059Z,15.60
2019-05-18T23:42:33.352Z,15.50
2019-05-18T23:45:02.957Z,15.50
2019-05-18T23:47:31.754Z,15.50
2019-05-18T23:50:00.985Z,15.40
2019-05-18T23:52:29.866Z,15.40
2019-05-18T23:54:59.793Z,15.30
2019-05-18T23:57:28.749Z,15.30
2019-05-18T23:59:58.601Z,15.30
